sensor_id;sensor_type;location;lat;lon;timestamp;P1;durP1;ratioP1;P2;durP2;ratioP2
83929;SDS011;73959;52.130;5.584;2023-11-18T00:00:45;61.40;;;33.10;;
83929;SDS011;73959;52.130;5.584;2023-11-18T00:03:11;59.70;;;31.88;;
83929;SDS011;73959;52.130;5.584;2023-11-18T00:05:37;61.60;;;32.28;;
83929;SDS011;73959;52.130;5.584;2023-11-18T00:08:03;59.85;;;31.60;;
83929;SDS011;73959;52.130;5.584;2023-11-18T00:10:29;63.38;;;32.53;;
83929;SDS011;73959;52.130;5.584;2023-11-18T00:12:55;63.53;;;32.15;;
83929;SDS011;73959;52.130;5.584;2023-11-18T00:15:21;67.07;;;31.98;;
83929;SDS011;73959;52.130;5.584;2023-11-18T00:17:47;58.92;;;32.08;;
83929;SDS011;73959;52.130;5.584;2023-11-18T00:20:13;60.10;;;32.58;;
83929;SDS011;73959;52.130;5.584;2023-11-18T00:22:41;57.35;;;30.80;;
83929;SDS011;73959;52.130;5.584;2023-11-18T00:25:07;64.50;;;33.70;;
83929;SDS011;73959;52.130;5.584;2023-11-18T00:27:34;64.15;;;31.63;;
83929;SDS011;73959;52.130;5.584;2023-11-18T00:30:03;70.47;;;33.22;;
83929;SDS011;73959;52.130;5.584;2023-11-18T00:32:30;59.75;;;31.67;;
83929;SDS011;73959;52.130;5.584;2023-11-18T00:34:56;59.35;;;31.88;;
83929;SDS011;73959;52.130;5.584;2023-11-18T00:37:22;61.55;;;32.40;;
83929;SDS011;73959;52.130;5.584;2023-11-18T00:39:48;58.72;;;32.03;;
83929;SDS011;73959;52.130;5.584;2023-11-18T00:42:14;61.72;;;31.35;;
83929;SDS011;73959;52.130;5.584;2023-11-18T00:44:40;60.22;;;31.05;;
83929;SDS011;73959;52.130;5.584;2023-11-18T00:47:06;62.70;;;32.50;;
83929;SDS011;73959;52.130;5.584;2023-11-18T00:49:33;66.13;;;33.72;;
83929;SDS011;73959;52.130;5.584;2023-11-18T00:51:59;59.78;;;33.20;;
83929;SDS011;73959;52.130;5.584;2023-11-18T00:54:25;60.45;;;31.77;;
83929;SDS011;73959;52.130;5.584;2023-11-18T00:56:51;58.53;;;32.05;;
83929;SDS011;73959;52.130;5.584;2023-11-18T00:59:17;55.85;;;30.90;;
83929;SDS011;73959;52.130;5.584;2023-11-18T01:01:43;59.40;;;31.85;;
83929;SDS011;73959;52.130;5.584;2023-11-18T01:04:09;65.05;;;31.42;;
83929;SDS011;73959;52.130;5.584;2023-11-18T01:06:35;56.17;;;30.70;;
83929;SDS011;73959;52.130;5.584;2023-11-18T01:09:01;53.13;;;29.33;;
83929;SDS011;73959;52.130;5.584;2023-11-18T01:11:28;60.17;;;32.28;;
83929;SDS011;73959;52.130;5.584;2023-11-18T01:13:54;65.55;;;33.50;;
83929;SDS011;73959;52.130;5.584;2023-11-18T01:16:21;64.50;;;32.83;;
83929;SDS011;73959;52.130;5.584;2023-11-18T01:18:47;61.83;;;33.08;;
83929;SDS011;73959;52.130;5.584;2023-11-18T01:21:13;65.03;;;33.97;;
83929;SDS011;73959;52.130;5.584;2023-11-18T01:23:42;62.03;;;32.58;;
83929;SDS011;73959;52.130;5.584;2023-11-18T01:26:09;66.50;;;34.00;;
83929;SDS011;73959;52.130;5.584;2023-11-18T01:28:37;65.93;;;34.90;;
83929;SDS011;73959;52.130;5.584;2023-11-18T01:31:06;59.70;;;31.88;;
83929;SDS011;73959;52.130;5.584;2023-11-18T01:33:39;66.28;;;34.95;;
83929;SDS011;73959;52.130;5.584;2023-11-18T01:36:05;61.17;;;34.03;;
83929;SDS011;73959;52.130;5.584;2023-11-18T01:38:33;66.20;;;34.58;;
83929;SDS011;73959;52.130;5.584;2023-11-18T01:40:59;66.13;;;34.92;;
83929;SDS011;73959;52.130;5.584;2023-11-18T01:43:25;60.65;;;33.70;;
83929;SDS011;73959;52.130;5.584;2023-11-18T01:45:51;59.08;;;32.83;;
83929;SDS011;73959;52.130;5.584;2023-11-18T01:48:18;63.70;;;33.63;;
83929;SDS011;73959;52.130;5.584;2023-11-18T01:50:44;58.63;;;33.42;;
83929;SDS011;73959;52.130;5.584;2023-11-18T01:53:12;57.05;;;32.80;;
83929;SDS011;73959;52.130;5.584;2023-11-18T01:55:39;60.30;;;33.42;;
83929;SDS011;73959;52.130;5.584;2023-11-18T01:58:05;56.00;;;32.25;;
83929;SDS011;73959;52.130;5.584;2023-11-18T02:00:35;64.72;;;33.67;;
83929;SDS011;73959;52.130;5.584;2023-11-18T02:03:03;62.85;;;33.47;;
83929;SDS011;73959;52.130;5.584;2023-11-18T02:05:30;61.47;;;32.42;;
83929;SDS011;73959;52.130;5.584;2023-11-18T02:07:58;61.45;;;33.53;;
83929;SDS011;73959;52.130;5.584;2023-11-18T02:10:25;54.65;;;31.23;;
83929;SDS011;73959;52.130;5.584;2023-11-18T02:15:18;62.72;;;35.03;;
83929;SDS011;73959;52.130;5.584;2023-11-18T02:17:45;64.10;;;33.75;;
83929;SDS011;73959;52.130;5.584;2023-11-18T02:20:11;65.78;;;34.28;;
83929;SDS011;73959;52.130;5.584;2023-11-18T02:22:42;65.30;;;34.75;;
83929;SDS011;73959;52.130;5.584;2023-11-18T02:25:09;67.57;;;35.03;;
83929;SDS011;73959;52.130;5.584;2023-11-18T02:27:36;66.43;;;34.72;;
83929;SDS011;73959;52.130;5.584;2023-11-18T02:30:02;72.15;;;34.33;;
83929;SDS011;73959;52.130;5.584;2023-11-18T02:32:35;63.03;;;35.50;;
83929;SDS011;73959;52.130;5.584;2023-11-18T02:35:09;69.00;;;35.45;;
83929;SDS011;73959;52.130;5.584;2023-11-18T02:37:46;61.90;;;32.85;;
83929;SDS011;73959;52.130;5.584;2023-11-18T02:40:15;65.35;;;36.42;;
83929;SDS011;73959;52.130;5.584;2023-11-18T02:42:43;67.97;;;36.72;;
83929;SDS011;73959;52.130;5.584;2023-11-18T02:45:11;68.05;;;35.17;;
83929;SDS011;73959;52.130;5.584;2023-11-18T02:47:41;63.58;;;33.55;;
83929;SDS011;73959;52.130;5.584;2023-11-18T02:50:07;67.30;;;36.38;;
83929;SDS011;73959;52.130;5.584;2023-11-18T02:52:39;67.68;;;34.40;;
83929;SDS011;73959;52.130;5.584;2023-11-18T02:55:05;59.38;;;31.02;;
83929;SDS011;73959;52.130;5.584;2023-11-18T02:57:32;68.45;;;36.15;;
83929;SDS011;73959;52.130;5.584;2023-11-18T02:59:58;67.78;;;35.58;;
83929;SDS011;73959;52.130;5.584;2023-11-18T03:02:25;71.53;;;36.08;;
83929;SDS011;73959;52.130;5.584;2023-11-18T03:04:54;74.22;;;36.85;;
83929;SDS011;73959;52.130;5.584;2023-11-18T03:07:20;71.15;;;37.92;;
83929;SDS011;73959;52.130;5.584;2023-11-18T03:09:46;73.82;;;35.65;;
83929;SDS011;73959;52.130;5.584;2023-11-18T03:12:12;62.70;;;32.47;;
83929;SDS011;73959;52.130;5.584;2023-11-18T03:14:38;69.05;;;35.05;;
83929;SDS011;73959;52.130;5.584;2023-11-18T03:17:04;66.32;;;35.63;;
83929;SDS011;73959;52.130;5.584;2023-11-18T03:19:32;65.18;;;32.63;;
83929;SDS011;73959;52.130;5.584;2023-11-18T03:21:59;68.47;;;34.63;;
83929;SDS011;73959;52.130;5.584;2023-11-18T03:24:26;68.07;;;36.75;;
83929;SDS011;73959;52.130;5.584;2023-11-18T03:26:53;59.90;;;33.58;;
83929;SDS011;73959;52.130;5.584;2023-11-18T03:29:19;65.05;;;34.08;;
83929;SDS011;73959;52.130;5.584;2023-11-18T03:31:45;58.72;;;32.72;;
83929;SDS011;73959;52.130;5.584;2023-11-18T03:34:13;60.80;;;30.98;;
83929;SDS011;73959;52.130;5.584;2023-11-18T03:36:39;65.88;;;35.70;;
83929;SDS011;73959;52.130;5.584;2023-11-18T03:39:05;71.38;;;35.42;;
83929;SDS011;73959;52.130;5.584;2023-11-18T03:41:32;66.45;;;33.92;;
83929;SDS011;73959;52.130;5.584;2023-11-18T03:43:58;69.32;;;34.70;;
83929;SDS011;73959;52.130;5.584;2023-11-18T03:46:23;60.38;;;33.58;;
83929;SDS011;73959;52.130;5.584;2023-11-18T03:48:49;58.90;;;32.53;;
83929;SDS011;73959;52.130;5.584;2023-11-18T03:51:15;54.65;;;30.73;;
83929;SDS011;73959;52.130;5.584;2023-11-18T03:53:44;61.22;;;32.20;;
83929;SDS011;73959;52.130;5.584;2023-11-18T03:56:10;65.43;;;33.83;;
83929;SDS011;73959;52.130;5.584;2023-11-18T03:58:36;57.50;;;31.73;;
83929;SDS011;73959;52.130;5.584;2023-11-18T04:01:02;61.28;;;32.13;;
83929;SDS011;73959;52.130;5.584;2023-11-18T04:03:28;61.38;;;33.10;;
83929;SDS011;73959;52.130;5.584;2023-11-18T04:05:54;63.47;;;34.15;;
83929;SDS011;73959;52.130;5.584;2023-11-18T04:08:20;61.13;;;33.00;;
83929;SDS011;73959;52.130;5.584;2023-11-18T04:10:46;56.08;;;31.25;;
83929;SDS011;73959;52.130;5.584;2023-11-18T04:13:12;67.13;;;33.97;;
83929;SDS011;73959;52.130;5.584;2023-11-18T04:15:38;68.82;;;34.47;;
83929;SDS011;73959;52.130;5.584;2023-11-18T04:18:04;69.70;;;34.92;;
83929;SDS011;73959;52.130;5.584;2023-11-18T04:20:31;70.30;;;35.08;;
83929;SDS011;73959;52.130;5.584;2023-11-18T04:22:57;55.78;;;31.33;;
83929;SDS011;73959;52.130;5.584;2023-11-18T04:25:23;65.03;;;34.50;;
83929;SDS011;73959;52.130;5.584;2023-11-18T04:27:50;71.72;;;36.40;;
83929;SDS011;73959;52.130;5.584;2023-11-18T04:30:16;69.28;;;35.42;;
83929;SDS011;73959;52.130;5.584;2023-11-18T04:32:42;68.75;;;34.47;;
83929;SDS011;73959;52.130;5.584;2023-11-18T04:35:08;66.72;;;34.03;;
83929;SDS011;73959;52.130;5.584;2023-11-18T04:37:36;69.25;;;34.72;;
83929;SDS011;73959;52.130;5.584;2023-11-18T04:40:03;68.07;;;36.72;;
83929;SDS011;73959;52.130;5.584;2023-11-18T04:42:29;65.70;;;33.30;;
83929;SDS011;73959;52.130;5.584;2023-11-18T04:44:58;71.25;;;36.00;;
83929;SDS011;73959;52.130;5.584;2023-11-18T04:47:24;66.25;;;32.78;;
83929;SDS011;73959;52.130;5.584;2023-11-18T04:49:50;70.70;;;35.67;;
83929;SDS011;73959;52.130;5.584;2023-11-18T04:52:17;74.28;;;36.17;;
83929;SDS011;73959;52.130;5.584;2023-11-18T04:54:43;74.85;;;36.08;;
83929;SDS011;73959;52.130;5.584;2023-11-18T04:57:12;76.05;;;36.33;;
83929;SDS011;73959;52.130;5.584;2023-11-18T04:59:38;71.57;;;36.90;;
83929;SDS011;73959;52.130;5.584;2023-11-18T05:02:04;70.35;;;34.85;;
83929;SDS011;73959;52.130;5.584;2023-11-18T05:04:31;73.43;;;36.22;;
83929;SDS011;73959;52.130;5.584;2023-11-18T05:06:57;70.70;;;36.13;;
83929;SDS011;73959;52.130;5.584;2023-11-18T05:09:23;71.32;;;35.78;;
83929;SDS011;73959;52.130;5.584;2023-11-18T05:11:49;73.32;;;36.15;;
83929;SDS011;73959;52.130;5.584;2023-11-18T05:14:15;79.68;;;39.00;;
83929;SDS011;73959;52.130;5.584;2023-11-18T05:16:42;70.18;;;35.50;;
83929;SDS011;73959;52.130;5.584;2023-11-18T05:19:07;72.80;;;35.90;;
83929;SDS011;73959;52.130;5.584;2023-11-18T05:21:34;69.28;;;35.33;;
83929;SDS011;73959;52.130;5.584;2023-11-18T05:24:00;59.95;;;33.33;;
83929;SDS011;73959;52.130;5.584;2023-11-18T05:26:26;66.50;;;32.47;;
83929;SDS011;73959;52.130;5.584;2023-11-18T05:28:52;67.07;;;33.78;;
83929;SDS011;73959;52.130;5.584;2023-11-18T05:31:19;68.00;;;34.53;;
83929;SDS011;73959;52.130;5.584;2023-11-18T05:33:45;62.70;;;31.88;;
83929;SDS011;73959;52.130;5.584;2023-11-18T05:36:17;64.00;;;32.90;;
83929;SDS011;73959;52.130;5.584;2023-11-18T05:38:51;60.53;;;32.53;;
83929;SDS011;73959;52.130;5.584;2023-11-18T05:41:18;63.67;;;32.28;;
83929;SDS011;73959;52.130;5.584;2023-11-18T05:43:52;64.22;;;32.75;;
83929;SDS011;73959;52.130;5.584;2023-11-18T05:46:18;67.82;;;33.75;;
83929;SDS011;73959;52.130;5.584;2023-11-18T05:48:49;61.10;;;30.67;;
83929;SDS011;73959;52.130;5.584;2023-11-18T05:51:18;62.28;;;30.88;;
83929;SDS011;73959;52.130;5.584;2023-11-18T05:53:45;60.97;;;31.58;;
83929;SDS011;73959;52.130;5.584;2023-11-18T05:56:12;57.35;;;30.40;;
83929;SDS011;73959;52.130;5.584;2023-11-18T05:58:38;58.90;;;31.63;;
83929;SDS011;73959;52.130;5.584;2023-11-18T06:01:04;63.35;;;31.70;;
83929;SDS011;73959;52.130;5.584;2023-11-18T06:03:32;54.35;;;30.70;;
83929;SDS011;73959;52.130;5.584;2023-11-18T06:05:58;59.63;;;30.70;;
83929;SDS011;73959;52.130;5.584;2023-11-18T06:08:24;59.65;;;30.55;;
83929;SDS011;73959;52.130;5.584;2023-11-18T06:10:51;52.92;;;28.50;;
83929;SDS011;73959;52.130;5.584;2023-11-18T06:13:21;51.33;;;28.02;;
83929;SDS011;73959;52.130;5.584;2023-11-18T06:15:49;58.67;;;28.70;;
83929;SDS011;73959;52.130;5.584;2023-11-18T06:18:16;54.17;;;27.45;;
83929;SDS011;73959;52.130;5.584;2023-11-18T06:20:43;52.17;;;28.48;;
83929;SDS011;73959;52.130;5.584;2023-11-18T06:23:09;51.35;;;26.52;;
83929;SDS011;73959;52.130;5.584;2023-11-18T06:25:35;48.95;;;26.17;;
83929;SDS011;73959;52.130;5.584;2023-11-18T06:28:01;51.75;;;27.35;;
83929;SDS011;73959;52.130;5.584;2023-11-18T06:30:27;54.70;;;26.83;;
83929;SDS011;73959;52.130;5.584;2023-11-18T06:32:53;46.42;;;26.75;;
83929;SDS011;73959;52.130;5.584;2023-11-18T06:35:19;48.40;;;26.40;;
83929;SDS011;73959;52.130;5.584;2023-11-18T06:37:46;48.40;;;24.77;;
83929;SDS011;73959;52.130;5.584;2023-11-18T06:40:12;51.65;;;26.17;;
83929;SDS011;73959;52.130;5.584;2023-11-18T06:42:43;49.72;;;26.92;;
83929;SDS011;73959;52.130;5.584;2023-11-18T06:45:12;56.97;;;28.80;;
83929;SDS011;73959;52.130;5.584;2023-11-18T06:47:38;52.35;;;27.05;;
83929;SDS011;73959;52.130;5.584;2023-11-18T06:50:08;52.97;;;27.33;;
83929;SDS011;73959;52.130;5.584;2023-11-18T06:52:37;54.03;;;27.33;;
83929;SDS011;73959;52.130;5.584;2023-11-18T06:55:04;49.30;;;25.83;;
83929;SDS011;73959;52.130;5.584;2023-11-18T06:57:30;52.45;;;25.45;;
83929;SDS011;73959;52.130;5.584;2023-11-18T06:59:57;53.78;;;26.45;;
83929;SDS011;73959;52.130;5.584;2023-11-18T07:02:23;48.28;;;24.88;;
83929;SDS011;73959;52.130;5.584;2023-11-18T07:04:49;48.97;;;25.35;;
83929;SDS011;73959;52.130;5.584;2023-11-18T07:07:15;47.60;;;24.85;;
83929;SDS011;73959;52.130;5.584;2023-11-18T07:09:41;50.20;;;26.75;;
83929;SDS011;73959;52.130;5.584;2023-11-18T07:12:09;44.28;;;23.92;;
83929;SDS011;73959;52.130;5.584;2023-11-18T07:14:35;53.70;;;26.58;;
83929;SDS011;73959;52.130;5.584;2023-11-18T07:17:01;41.80;;;24.25;;
83929;SDS011;73959;52.130;5.584;2023-11-18T07:19:29;44.58;;;25.02;;
83929;SDS011;73959;52.130;5.584;2023-11-18T07:21:58;43.40;;;24.20;;
83929;SDS011;73959;52.130;5.584;2023-11-18T07:24:24;46.78;;;24.55;;
83929;SDS011;73959;52.130;5.584;2023-11-18T07:26:50;41.53;;;23.48;;
83929;SDS011;73959;52.130;5.584;2023-11-18T07:29:16;40.22;;;22.92;;
83929;SDS011;73959;52.130;5.584;2023-11-18T07:31:42;43.47;;;24.05;;
83929;SDS011;73959;52.130;5.584;2023-11-18T07:34:09;39.50;;;22.40;;
83929;SDS011;73959;52.130;5.584;2023-11-18T07:36:35;44.67;;;23.48;;
83929;SDS011;73959;52.130;5.584;2023-11-18T07:39:01;44.08;;;23.75;;
83929;SDS011;73959;52.130;5.584;2023-11-18T07:41:30;39.47;;;23.02;;
83929;SDS011;73959;52.130;5.584;2023-11-18T07:43:56;40.33;;;22.70;;
83929;SDS011;73959;52.130;5.584;2023-11-18T07:46:22;43.50;;;24.40;;
83929;SDS011;73959;52.130;5.584;2023-11-18T07:48:52;38.63;;;23.50;;
83929;SDS011;73959;52.130;5.584;2023-11-18T07:51:18;42.30;;;23.23;;
83929;SDS011;73959;52.130;5.584;2023-11-18T07:53:48;43.08;;;23.10;;
83929;SDS011;73959;52.130;5.584;2023-11-18T07:56:14;37.72;;;23.15;;
83929;SDS011;73959;52.130;5.584;2023-11-18T07:58:41;43.08;;;23.77;;
83929;SDS011;73959;52.130;5.584;2023-11-18T08:01:10;36.75;;;22.80;;
83929;SDS011;73959;52.130;5.584;2023-11-18T08:03:36;46.38;;;24.55;;
83929;SDS011;73959;52.130;5.584;2023-11-18T08:06:03;34.30;;;21.98;;
83929;SDS011;73959;52.130;5.584;2023-11-18T08:08:31;37.47;;;21.65;;
83929;SDS011;73959;52.130;5.584;2023-11-18T08:10:57;40.70;;;24.35;;
83929;SDS011;73959;52.130;5.584;2023-11-18T08:13:24;37.28;;;23.98;;
83929;SDS011;73959;52.130;5.584;2023-11-18T08:15:51;39.85;;;23.30;;
83929;SDS011;73959;52.130;5.584;2023-11-18T08:18:17;38.95;;;24.10;;
83929;SDS011;73959;52.130;5.584;2023-11-18T08:20:43;35.63;;;23.13;;
83929;SDS011;73959;52.130;5.584;2023-11-18T08:23:09;34.80;;;22.65;;
83929;SDS011;73959;52.130;5.584;2023-11-18T08:25:35;40.92;;;22.17;;
83929;SDS011;73959;52.130;5.584;2023-11-18T08:28:02;35.70;;;22.52;;
83929;SDS011;73959;52.130;5.584;2023-11-18T08:30:32;35.88;;;22.25;;
83929;SDS011;73959;52.130;5.584;2023-11-18T08:33:00;36.47;;;22.45;;
83929;SDS011;73959;52.130;5.584;2023-11-18T08:35:29;41.58;;;22.15;;
83929;SDS011;73959;52.130;5.584;2023-11-18T08:37:55;35.30;;;21.00;;
83929;SDS011;73959;52.130;5.584;2023-11-18T08:40:21;37.40;;;20.55;;
83929;SDS011;73959;52.130;5.584;2023-11-18T08:42:48;34.53;;;21.05;;
83929;SDS011;73959;52.130;5.584;2023-11-18T08:47:46;34.53;;;21.02;;
83929;SDS011;73959;52.130;5.584;2023-11-18T08:50:13;36.08;;;20.40;;
83929;SDS011;73959;52.130;5.584;2023-11-18T08:52:39;29.98;;;18.88;;
83929;SDS011;73959;52.130;5.584;2023-11-18T08:55:11;33.78;;;19.50;;
83929;SDS011;73959;52.130;5.584;2023-11-18T08:57:49;33.30;;;18.27;;
83929;SDS011;73959;52.130;5.584;2023-11-18T09:00:28;29.48;;;17.70;;
83929;SDS011;73959;52.130;5.584;2023-11-18T09:03:09;29.13;;;17.98;;
83929;SDS011;73959;52.130;5.584;2023-11-18T09:05:42;32.13;;;18.17;;
83929;SDS011;73959;52.130;5.584;2023-11-18T09:08:14;31.05;;;17.83;;
83929;SDS011;73959;52.130;5.584;2023-11-18T09:10:41;32.15;;;17.63;;
83929;SDS011;73959;52.130;5.584;2023-11-18T09:13:08;29.85;;;17.40;;
83929;SDS011;73959;52.130;5.584;2023-11-18T09:15:36;27.20;;;16.88;;
83929;SDS011;73959;52.130;5.584;2023-11-18T09:18:02;31.27;;;16.27;;
83929;SDS011;73959;52.130;5.584;2023-11-18T09:20:28;25.83;;;14.55;;
83929;SDS011;73959;52.130;5.584;2023-11-18T09:22:54;29.38;;;16.27;;
83929;SDS011;73959;52.130;5.584;2023-11-18T09:25:20;28.63;;;16.15;;
83929;SDS011;73959;52.130;5.584;2023-11-18T09:27:47;25.98;;;15.85;;
83929;SDS011;73959;52.130;5.584;2023-11-18T09:30:13;29.60;;;15.77;;
83929;SDS011;73959;52.130;5.584;2023-11-18T09:32:42;24.70;;;15.15;;
83929;SDS011;73959;52.130;5.584;2023-11-18T09:35:08;25.15;;;15.50;;
83929;SDS011;73959;52.130;5.584;2023-11-18T09:37:35;28.45;;;15.18;;
83929;SDS011;73959;52.130;5.584;2023-11-18T09:40:05;26.60;;;14.93;;
83929;SDS011;73959;52.130;5.584;2023-11-18T09:42:42;28.42;;;16.25;;
83929;SDS011;73959;52.130;5.584;2023-11-18T09:45:11;25.35;;;15.30;;
83929;SDS011;73959;52.130;5.584;2023-11-18T09:47:42;26.75;;;16.15;;
83929;SDS011;73959;52.130;5.584;2023-11-18T09:50:12;25.25;;;14.25;;
83929;SDS011;73959;52.130;5.584;2023-11-18T09:52:41;25.15;;;14.65;;
83929;SDS011;73959;52.130;5.584;2023-11-18T09:55:15;27.25;;;15.30;;
83929;SDS011;73959;52.130;5.584;2023-11-18T09:57:45;23.13;;;14.30;;
83929;SDS011;73959;52.130;5.584;2023-11-18T10:00:22;29.25;;;14.02;;
83929;SDS011;73959;52.130;5.584;2023-11-18T10:02:52;24.67;;;13.65;;
83929;SDS011;73959;52.130;5.584;2023-11-18T10:05:21;25.58;;;12.68;;
83929;SDS011;73959;52.130;5.584;2023-11-18T10:07:48;22.55;;;13.98;;
83929;SDS011;73959;52.130;5.584;2023-11-18T10:10:14;23.88;;;13.27;;
83929;SDS011;73959;52.130;5.584;2023-11-18T10:12:43;24.85;;;12.80;;
83929;SDS011;73959;52.130;5.584;2023-11-18T10:15:13;27.17;;;13.40;;
83929;SDS011;73959;52.130;5.584;2023-11-18T10:17:43;27.25;;;14.30;;
83929;SDS011;73959;52.130;5.584;2023-11-18T10:20:20;20.25;;;12.68;;
83929;SDS011;73959;52.130;5.584;2023-11-18T10:22:50;26.33;;;12.93;;
83929;SDS011;73959;52.130;5.584;2023-11-18T10:25:31;32.45;;;13.82;;
83929;SDS011;73959;52.130;5.584;2023-11-18T10:28:00;30.17;;;13.07;;
83929;SDS011;73959;52.130;5.584;2023-11-18T10:30:27;24.20;;;13.55;;
83929;SDS011;73959;52.130;5.584;2023-11-18T10:32:59;25.80;;;13.15;;
83929;SDS011;73959;52.130;5.584;2023-11-18T10:35:32;23.70;;;12.55;;
83929;SDS011;73959;52.130;5.584;2023-11-18T10:38:01;23.52;;;12.50;;
83929;SDS011;73959;52.130;5.584;2023-11-18T10:40:31;20.35;;;12.23;;
83929;SDS011;73959;52.130;5.584;2023-11-18T10:43:01;17.92;;;11.32;;
83929;SDS011;73959;52.130;5.584;2023-11-18T10:45:34;21.70;;;12.18;;
83929;SDS011;73959;52.130;5.584;2023-11-18T10:48:04;23.02;;;12.68;;
83929;SDS011;73959;52.130;5.584;2023-11-18T10:50:31;22.92;;;13.50;;
83929;SDS011;73959;52.130;5.584;2023-11-18T10:52:58;25.33;;;12.75;;
83929;SDS011;73959;52.130;5.584;2023-11-18T10:55:34;20.58;;;12.60;;
83929;SDS011;73959;52.130;5.584;2023-11-18T10:58:00;21.98;;;13.07;;
83929;SDS011;73959;52.130;5.584;2023-11-18T11:00:26;22.85;;;12.50;;
83929;SDS011;73959;52.130;5.584;2023-11-18T11:02:58;18.52;;;11.45;;
83929;SDS011;73959;52.130;5.584;2023-11-18T11:05:28;20.80;;;12.25;;
83929;SDS011;73959;52.130;5.584;2023-11-18T11:07:58;20.05;;;12.35;;
83929;SDS011;73959;52.130;5.584;2023-11-18T11:10:24;22.83;;;12.70;;
83929;SDS011;73959;52.130;5.584;2023-11-18T11:12:54;24.38;;;12.55;;
83929;SDS011;73959;52.130;5.584;2023-11-18T11:15:30;22.88;;;12.43;;
83929;SDS011;73959;52.130;5.584;2023-11-18T11:17:58;25.60;;;13.13;;
83929;SDS011;73959;52.130;5.584;2023-11-18T11:20:34;24.77;;;12.55;;
83929;SDS011;73959;52.130;5.584;2023-11-18T11:23:12;24.10;;;12.63;;
83929;SDS011;73959;52.130;5.584;2023-11-18T11:28:55;25.23;;;11.75;;
83929;SDS011;73959;52.130;5.584;2023-11-18T11:31:26;22.20;;;12.50;;
83929;SDS011;73959;52.130;5.584;2023-11-18T11:33:57;24.50;;;12.38;;
83929;SDS011;73959;52.130;5.584;2023-11-18T11:36:25;20.67;;;11.35;;
83929;SDS011;73959;52.130;5.584;2023-11-18T11:38:56;20.50;;;11.80;;
83929;SDS011;73959;52.130;5.584;2023-11-18T11:41:23;20.98;;;11.38;;
83929;SDS011;73959;52.130;5.584;2023-11-18T11:43:52;24.88;;;12.57;;
83929;SDS011;73959;52.130;5.584;2023-11-18T11:46:20;19.38;;;11.32;;
83929;SDS011;73959;52.130;5.584;2023-11-18T11:48:48;22.38;;;12.07;;
83929;SDS011;73959;52.130;5.584;2023-11-18T11:56:47;22.58;;;12.02;;
83929;SDS011;73959;52.130;5.584;2023-11-18T11:59:18;21.88;;;10.82;;
83929;SDS011;73959;52.130;5.584;2023-11-18T12:02:03;19.63;;;12.13;;
83929;SDS011;73959;52.130;5.584;2023-11-18T12:04:32;27.38;;;12.77;;
83929;SDS011;73959;52.130;5.584;2023-11-18T12:06:59;20.98;;;11.60;;
83929;SDS011;73959;52.130;5.584;2023-11-18T12:09:30;21.02;;;11.50;;
83929;SDS011;73959;52.130;5.584;2023-11-18T12:12:03;21.02;;;10.85;;
83929;SDS011;73959;52.130;5.584;2023-11-18T12:14:29;25.90;;;11.93;;
83929;SDS011;73959;52.130;5.584;2023-11-18T12:19:38;17.20;;;10.85;;
83929;SDS011;73959;52.130;5.584;2023-11-18T12:22:16;19.60;;;10.48;;
83929;SDS011;73959;52.130;5.584;2023-11-18T12:25:28;21.60;;;11.02;;
83929;SDS011;73959;52.130;5.584;2023-11-18T12:27:41;16.45;;;10.52;;
83929;SDS011;73959;52.130;5.584;2023-11-18T12:35:31;20.17;;;10.13;;
83929;SDS011;73959;52.130;5.584;2023-11-18T12:42:58;19.77;;;9.10;;
83929;SDS011;73959;52.130;5.584;2023-11-18T12:48:09;18.05;;;8.98;;
83929;SDS011;73959;52.130;5.584;2023-11-18T12:50:42;19.30;;;9.07;;
83929;SDS011;73959;52.130;5.584;2023-11-18T12:53:10;17.67;;;9.13;;
83929;SDS011;73959;52.130;5.584;2023-11-18T12:55:39;16.15;;;9.20;;
83929;SDS011;73959;52.130;5.584;2023-11-18T12:58:06;15.35;;;8.93;;
83929;SDS011;73959;52.130;5.584;2023-11-18T13:00:32;14.25;;;8.32;;
83929;SDS011;73959;52.130;5.584;2023-11-18T13:03:00;14.73;;;8.23;;
83929;SDS011;73959;52.130;5.584;2023-11-18T13:05:26;14.63;;;9.15;;
83929;SDS011;73959;52.130;5.584;2023-11-18T13:07:56;11.57;;;7.13;;
83929;SDS011;73959;52.130;5.584;2023-11-18T13:10:26;15.50;;;8.13;;
83929;SDS011;73959;52.130;5.584;2023-11-18T13:12:53;13.85;;;7.95;;
83929;SDS011;73959;52.130;5.584;2023-11-18T13:15:19;13.90;;;7.55;;
83929;SDS011;73959;52.130;5.584;2023-11-18T13:17:59;13.82;;;7.63;;
83929;SDS011;73959;52.130;5.584;2023-11-18T13:20:25;12.45;;;6.75;;
83929;SDS011;73959;52.130;5.584;2023-11-18T13:22:51;12.48;;;7.15;;
83929;SDS011;73959;52.130;5.584;2023-11-18T13:25:20;14.88;;;7.88;;
83929;SDS011;73959;52.130;5.584;2023-11-18T13:27:46;14.02;;;7.43;;
83929;SDS011;73959;52.130;5.584;2023-11-18T13:30:12;13.50;;;6.57;;
83929;SDS011;73959;52.130;5.584;2023-11-18T13:32:42;12.07;;;6.63;;
83929;SDS011;73959;52.130;5.584;2023-11-18T13:35:08;12.15;;;7.28;;
83929;SDS011;73959;52.130;5.584;2023-11-18T13:37:35;16.50;;;10.75;;
83929;SDS011;73959;52.130;5.584;2023-11-18T13:40:01;14.50;;;7.22;;
83929;SDS011;73959;52.130;5.584;2023-11-18T13:42:30;12.27;;;7.80;;
83929;SDS011;73959;52.130;5.584;2023-11-18T13:45:05;10.55;;;7.15;;
83929;SDS011;73959;52.130;5.584;2023-11-18T13:47:37;12.48;;;7.22;;
83929;SDS011;73959;52.130;5.584;2023-11-18T13:50:06;10.80;;;6.90;;
83929;SDS011;73959;52.130;5.584;2023-11-18T13:52:33;18.42;;;11.85;;
83929;SDS011;73959;52.130;5.584;2023-11-18T13:54:59;8.85;;;5.65;;
83929;SDS011;73959;52.130;5.584;2023-11-18T13:57:25;12.93;;;6.07;;
83929;SDS011;73959;52.130;5.584;2023-11-18T13:59:51;13.05;;;5.50;;
83929;SDS011;73959;52.130;5.584;2023-11-18T14:02:19;12.75;;;7.75;;
83929;SDS011;73959;52.130;5.584;2023-11-18T14:04:46;11.18;;;5.95;;
83929;SDS011;73959;52.130;5.584;2023-11-18T14:07:16;5.95;;;5.13;;
83929;SDS011;73959;52.130;5.584;2023-11-18T14:09:42;10.85;;;6.18;;
83929;SDS011;73959;52.130;5.584;2023-11-18T14:12:10;9.20;;;5.63;;
83929;SDS011;73959;52.130;5.584;2023-11-18T14:14:36;6.85;;;5.20;;
83929;SDS011;73959;52.130;5.584;2023-11-18T14:17:03;6.75;;;5.07;;
83929;SDS011;73959;52.130;5.584;2023-11-18T14:19:31;10.50;;;5.03;;
83929;SDS011;73959;52.130;5.584;2023-11-18T14:22:00;9.93;;;5.50;;
83929;SDS011;73959;52.130;5.584;2023-11-18T14:24:25;6.85;;;5.05;;
83929;SDS011;73959;52.130;5.584;2023-11-18T14:26:52;8.63;;;4.45;;
83929;SDS011;73959;52.130;5.584;2023-11-18T14:29:18;5.10;;;4.40;;
83929;SDS011;73959;52.130;5.584;2023-11-18T14:31:45;7.63;;;4.50;;
83929;SDS011;73959;52.130;5.584;2023-11-18T14:34:11;5.88;;;4.05;;
83929;SDS011;73959;52.130;5.584;2023-11-18T14:36:37;5.10;;;3.80;;
83929;SDS011;73959;52.130;5.584;2023-11-18T14:39:03;4.50;;;4.03;;
83929;SDS011;73959;52.130;5.584;2023-11-18T14:41:30;4.63;;;3.70;;
83929;SDS011;73959;52.130;5.584;2023-11-18T14:43:59;5.40;;;3.85;;
83929;SDS011;73959;52.130;5.584;2023-11-18T14:46:27;5.85;;;4.03;;
83929;SDS011;73959;52.130;5.584;2023-11-18T14:48:53;11.48;;;6.88;;
83929;SDS011;73959;52.130;5.584;2023-11-18T14:51:20;8.50;;;4.72;;
83929;SDS011;73959;52.130;5.584;2023-11-18T14:53:46;5.13;;;3.65;;
83929;SDS011;73959;52.130;5.584;2023-11-18T14:56:12;4.07;;;3.45;;